createdAt,value
2023-02-11T00:02:24.339Z,103015.97
2023-02-11T00:07:26.837Z,103027.16
2023-02-11T00:12:29.807Z,103020.53
2023-02-11T00:17:32.980Z,103018.69
2023-02-11T00:22:35.406Z,103003.16
2023-02-11T00:27:38.353Z,102996.63
2023-02-11T00:32:42.847Z,103002.50
2023-02-11T00:37:45.267Z,102999.56
2023-02-11T00:42:47.856Z,103000.44
2023-02-11T00:47:50.289Z,102991.31
2023-02-11T00:52:52.766Z,102985.78
2023-02-11T00:57:55.233Z,102981.13
2023-02-11T01:02:57.680Z,102992.56
2023-02-11T01:08:00.295Z,102981.19
2023-02-11T01:13:02.898Z,102993.75
2023-02-11T01:18:06.595Z,102982.34
2023-02-11T01:23:09.159Z,102997.63
2023-02-11T01:28:21.631Z,102993.59
2023-02-11T01:33:24.868Z,102989.34
2023-02-11T01:38:27.315Z,102991.81
2023-02-11T01:43:34.900Z,102990.34
2023-02-11T01:48:42.077Z,102984.03
2023-02-11T01:54:03.748Z,102980.88
2023-02-11T01:59:13.588Z,102974.56
2023-02-11T02:04:19.311Z,102982.72
2023-02-11T02:09:29.137Z,102986.75
2023-02-11T02:14:31.837Z,102979.19
2023-02-11T02:19:37.187Z,102978.84
2023-02-11T02:25:04.228Z,102989.41
2023-02-11T02:30:40.403Z,102984.53
2023-02-11T02:35:54.224Z,102989.34
2023-02-11T02:41:18.068Z,102981.56
2023-02-11T02:46:21.866Z,102974.44
2023-02-11T02:51:54.602Z,102967.34
2023-02-11T02:56:56.929Z,102951.38
2023-02-11T03:02:11.062Z,102953.38
2023-02-11T03:07:23.396Z,102965.88
2023-02-11T03:12:28.458Z,102960.53
2023-02-11T03:17:33.890Z,102951.97
2023-02-11T03:22:43.121Z,102953.91
2023-02-11T03:27:49.684Z,102950.53
2023-02-11T03:32:57.798Z,102949.38
2023-02-11T03:38:10.656Z,102949.78
2023-02-11T03:43:17.444Z,102948.72
2023-02-11T03:48:25.997Z,102950.13
2023-02-11T03:53:28.400Z,102954.56
2023-02-11T03:58:31.018Z,102949.53
2023-02-11T04:03:33.479Z,102950.28
2023-02-11T04:08:36.018Z,102934.34
2023-02-11T04:13:38.365Z,102935.25
2023-02-11T04:18:40.770Z,102942.13
2023-02-11T04:23:43.254Z,102951.88
2023-02-11T04:28:45.564Z,102953.41
2023-02-11T04:33:47.999Z,102936.31
2023-02-11T04:38:50.367Z,102942.47
2023-02-11T04:43:55.334Z,102941.13
2023-02-11T04:48:57.881Z,102942.16
2023-02-11T04:54:00.301Z,102934.31
2023-02-11T04:59:02.871Z,102912.19
2023-02-11T05:04:05.592Z,102914.09
2023-02-11T05:09:12.958Z,102920.72
2023-02-11T05:14:15.479Z,102915.91
2023-02-11T05:19:18.103Z,102913.16
2023-02-11T05:24:21.300Z,102933.75
2023-02-11T05:29:23.709Z,102943.03
2023-02-11T05:34:26.330Z,102933.25
2023-02-11T05:39:28.880Z,102936.47
2023-02-11T05:44:31.324Z,102943.03
2023-02-11T05:49:33.744Z,102936.09
2023-02-11T05:54:36.198Z,102941.06
2023-02-11T05:59:40.264Z,102937.88
2023-02-11T06:04:42.905Z,102939.09
2023-02-11T06:09:45.456Z,102933.31
2023-02-11T06:14:47.802Z,102934.06
2023-02-11T06:19:50.250Z,102926.53
2023-02-11T06:25:01.225Z,102923.41
2023-02-11T06:30:07.722Z,102936.50
2023-02-11T06:35:12.049Z,102935.31
2023-02-11T06:40:15.014Z,102932.84
2023-02-11T06:45:17.622Z,102927.09
2023-02-11T06:50:20.142Z,102918.97
2023-02-11T06:55:22.566Z,102897.63
2023-02-11T07:00:25.113Z,102896.03
2023-02-11T07:05:27.609Z,102891.84
2023-02-11T07:10:30.169Z,102894.75
2023-02-11T07:15:32.949Z,102883.31
2023-02-11T07:20:38.326Z,102868.09
2023-02-11T07:25:40.746Z,102850.91
2023-02-11T07:30:43.242Z,102860.22
2023-02-11T07:35:45.986Z,102877.19
2023-02-11T07:40:49.399Z,102861.81
2023-02-11T07:45:51.993Z,102871.31
2023-02-11T07:50:54.569Z,102870.91
2023-02-11T07:55:56.961Z,102869.66
2023-02-11T08:01:08.492Z,102863.00
2023-02-11T08:06:14.456Z,102868.03
2023-02-11T08:11:18.014Z,102859.28
2023-02-11T08:16:28.186Z,102844.72
2023-02-11T08:21:30.770Z,102814.19
2023-02-11T08:26:37.441Z,102815.97
2023-02-11T08:31:43.063Z,102821.88
2023-02-11T08:36:47.262Z,102822.94
2023-02-11T08:41:56.839Z,102823.38
2023-02-11T08:46:59.538Z,102810.56
2023-02-11T08:52:04.455Z,102790.97
2023-02-11T08:57:06.984Z,102786.56
2023-02-11T09:02:13.742Z,102778.56
2023-02-11T09:07:18.735Z,102760.47
2023-02-11T09:12:21.189Z,102753.91
2023-02-11T09:17:23.696Z,102742.22
2023-02-11T09:22:26.164Z,102724.69
2023-02-11T09:27:28.642Z,102717.94
2023-02-11T09:32:31.139Z,102716.19
2023-02-11T09:37:36.288Z,102714.59
2023-02-11T09:42:50.667Z,102676.19
2023-02-11T09:48:16.547Z,102675.97
2023-02-11T09:53:26.469Z,102667.50
2023-02-11T09:58:32.707Z,102679.56
2023-02-11T10:03:58.000Z,102681.84
2023-02-11T10:09:09.464Z,102683.47
2023-02-11T10:14:45.648Z,102681.84
2023-02-11T10:20:07.132Z,102692.69
2023-02-11T10:25:59.396Z,102682.66
2023-02-11T10:31:16.112Z,102675.44
2023-02-11T10:36:21.250Z,102668.72
2023-02-11T10:41:35.442Z,102662.22
2023-02-11T10:46:41.219Z,102650.16
2023-02-11T10:51:43.749Z,102647.16
2023-02-11T10:56:52.392Z,102642.53
2023-02-11T11:02:00.850Z,102643.63
2023-02-11T11:07:20.807Z,102640.41
2023-02-11T11:12:53.180Z,102624.91
2023-02-11T11:18:21.897Z,102617.28
2023-02-11T11:23:26.190Z,102612.94
2023-02-11T11:28:31.027Z,102623.81
2023-02-11T11:33:36.008Z,102620.28
2023-02-11T11:38:45.398Z,102611.50
2023-02-11T11:43:58.808Z,102616.00
2023-02-11T11:49:30.150Z,102619.41
2023-02-11T11:54:34.781Z,102628.22
2023-02-11T11:59:38.513Z,102619.34
2023-02-11T12:05:11.267Z,102618.38
2023-02-11T12:10:19.674Z,102630.91
2023-02-11T12:16:04.303Z,102628.06
2023-02-11T12:21:21.775Z,102619.38
2023-02-11T12:26:29.420Z,102629.19
2023-02-11T12:31:56.323Z,102616.56
2023-02-11T12:37:09.600Z,102608.94
2023-02-11T12:42:49.118Z,102607.53
2023-02-11T12:48:13.184Z,102612.19
2023-02-11T12:53:49.967Z,102603.47
2023-02-11T12:58:56.287Z,102601.09
2023-02-11T13:04:26.546Z,102598.75
2023-02-11T13:09:53.033Z,102596.16
2023-02-11T13:14:59.808Z,102600.06
2023-02-11T13:20:15.650Z,102597.47
2023-02-11T13:25:31.858Z,102592.94
2023-02-11T13:30:41.299Z,102588.63
2023-02-11T13:36:09.707Z,102583.03
2023-02-11T13:41:25.918Z,102592.78
2023-02-11T13:46:30.559Z,102585.72
2023-02-11T13:51:42.732Z,102583.53
2023-02-11T13:56:46.595Z,102582.00
2023-02-11T14:02:09.078Z,102582.53
2023-02-11T14:07:51.889Z,102577.13
2023-02-11T14:13:16.939Z,102575.06
2023-02-11T14:18:38.866Z,102569.09
2023-02-11T14:23:42.436Z,102560.91
2023-02-11T14:28:47.201Z,102578.28
2023-02-11T14:34:15.416Z,102579.06
2023-02-11T14:39:40.654Z,102556.06
2023-02-11T14:44:43.157Z,102571.06
2023-02-11T14:49:45.723Z,102572.00
2023-02-11T14:54:51.470Z,102576.91
2023-02-11T15:00:21.913Z,102570.59
2023-02-11T15:05:30.008Z,102562.03
2023-02-11T15:10:55.586Z,102572.25
2023-02-11T15:16:06.979Z,102562.66
2023-02-11T15:21:10.443Z,102559.03
2023-02-11T15:26:22.673Z,102559.25
2023-02-11T15:31:27.566Z,102567.00
2023-02-11T15:36:34.599Z,102543.44
2023-02-11T15:41:38.568Z,102548.53
2023-02-11T15:46:41.499Z,102551.16
2023-02-11T15:51:46.497Z,102562.97
2023-02-11T15:56:51.809Z,102573.31
2023-02-11T16:01:55.492Z,102557.09
2023-02-11T16:06:58.346Z,102558.03
2023-02-11T16:12:24.821Z,102558.59
2023-02-11T16:17:30.528Z,102548.44
2023-02-11T16:22:38.371Z,102545.22
2023-02-11T16:27:43.454Z,102533.63
2023-02-11T16:32:45.916Z,102536.19
2023-02-11T16:37:48.399Z,102534.84
2023-02-11T16:42:52.695Z,102527.38
2023-02-11T16:47:55.213Z,102529.47
2023-02-11T16:52:59.713Z,102525.84
2023-02-11T16:58:02.213Z,102516.72
2023-02-11T17:03:09.177Z,102519.81
2023-02-11T17:08:12.164Z,102509.09
2023-02-11T17:13:14.718Z,102501.81
2023-02-11T17:18:17.161Z,102500.66
2023-02-11T17:23:19.527Z,102495.44
2023-02-11T17:28:22.482Z,102487.59
2023-02-11T17:33:25.252Z,102477.84
2023-02-11T17:38:27.830Z,102473.44
2023-02-11T17:43:30.659Z,102454.72
2023-02-11T17:48:33.110Z,102461.09
2023-02-11T17:53:35.847Z,102449.44
2023-02-11T17:58:38.629Z,102450.88
2023-02-11T18:03:41.209Z,102448.13
2023-02-11T18:08:46.258Z,102442.75
2023-02-11T18:13:54.585Z,102443.06
2023-02-11T18:18:58.606Z,102428.38
2023-02-11T18:24:06.717Z,102440.47
2023-02-11T18:29:09.749Z,102434.00
2023-02-11T18:34:16.213Z,102426.13
2023-02-11T18:39:20.320Z,102419.19
2023-02-11T18:44:25.049Z,102408.44
2023-02-11T18:49:27.752Z,102404.09
2023-02-11T18:54:30.262Z,102408.25
2023-02-11T18:59:32.683Z,102402.31
2023-02-11T19:04:37.537Z,102392.66
2023-02-11T19:09:39.996Z,102385.91
2023-02-11T19:14:42.676Z,102380.97
2023-02-11T19:19:45.114Z,102376.13
2023-02-11T19:24:47.695Z,102361.84
2023-02-11T19:29:50.224Z,102349.13
2023-02-11T19:34:53.463Z,102340.31
2023-02-11T19:39:55.969Z,102347.22
2023-02-11T19:45:00.672Z,102341.94
2023-02-11T19:50:04.615Z,102341.63
2023-02-11T19:55:07.980Z,102332.88
2023-02-11T20:00:11.498Z,102327.81
2023-02-11T20:05:17.120Z,102320.25
2023-02-11T20:10:19.629Z,102309.91
2023-02-11T20:15:22.193Z,102309.13
2023-02-11T20:20:24.660Z,102307.47
2023-02-11T20:25:29.861Z,102307.53
2023-02-11T20:30:35.379Z,102310.78
2023-02-11T20:35:38.257Z,102303.28
2023-02-11T20:40:40.708Z,102295.28
2023-02-11T20:45:43.224Z,102303.66
2023-02-11T20:50:48.278Z,102298.56
2023-02-11T20:55:51.032Z,102294.25
2023-02-11T21:00:53.709Z,102282.13
2023-02-11T21:05:59.134Z,102279.53
2023-02-11T21:11:02.179Z,102279.88
2023-02-11T21:16:05.567Z,102272.09
2023-02-11T21:21:11.465Z,102277.13
2023-02-11T21:26:14.583Z,102268.13
2023-02-11T21:31:25.660Z,102267.44
2023-02-11T21:36:29.199Z,102265.94
2023-02-11T21:41:31.698Z,102256.06
2023-02-11T21:46:34.193Z,102247.09
2023-02-11T21:51:36.637Z,102242.19
2023-02-11T21:56:39.044Z,102241.88
2023-02-11T22:01:41.815Z,102234.38
2023-02-11T22:07:09.617Z,102227.53
2023-02-11T22:12:12.166Z,102221.13
2023-02-11T22:17:14.980Z,102210.25
2023-02-11T22:22:19.941Z,102208.09
2023-02-11T22:27:22.694Z,102198.13
2023-02-11T22:32:25.240Z,102188.81
2023-02-11T22:37:27.802Z,102186.13
2023-02-11T22:42:30.569Z,102184.94
2023-02-11T22:47:33.110Z,102177.84
2023-02-11T22:52:36.639Z,102178.19
2023-02-11T22:57:42.079Z,102174.31
2023-02-11T23:02:44.846Z,102169.53
2023-02-11T23:07:47.448Z,102166.66
2023-02-11T23:12:50.022Z,102159.44
2023-02-11T23:17:52.570Z,102171.63
2023-02-11T23:22:55.929Z,102157.06
2023-02-11T23:27:59.102Z,102155.38
2023-02-11T23:33:01.641Z,102152.84
2023-02-11T23:38:05.245Z,102145.88
2023-02-11T23:43:07.817Z,102135.38
2023-02-11T23:48:13.389Z,102129.97
2023-02-11T23:53:17.736Z,102111.50
2023-02-11T23:58:20.361Z,102114.38
